Hauptseite
METAR-TAF:

METAR-TAF

Flughäfen :

Bournemouth Airport

Bournemouth, England

Breite: 50-47N, Länge: 001-50W, Höhe: 11 m

Beobachtung

Neuester Wetterbericht von vor 29 Minuten, um 18:50 UTC
Wind 9 kt aus unterschiedlichen Richtungen
Temperatur 21°C
Luftfeuchtigkeit 83%
Luftdruck 1019 hPa
Sichtweite 10 km oder mehr
Aufgelockert bewölkt in der Höhe von 1700 ft
Durchbrochene Bewölkung in der Höhe von 2400 ft

METAR: EGHH 191850Z VRB09KT 9999 SCT017 BKN024 21/18 Q1019

Zeit: 20:19 (19:19 UTC)

Prognose

Neuester Wetterbericht von vor 17 Minuten, um 19:02 UTC
Gültige Prognose vom 19 um 19 UTC bis 20 um 03 UTC
Wind 9 kt aus West
Sichtweite 10 km oder mehr
Aufgelockert bewölkt in der Höhe von 2500 ft

TAF: EGHH 191902Z 1919/2003 26009KT 9999 SCT025

Wetterbeobachtungen und Prognosen von mehr als 4000 Flughäfen (METAR und TAF Bericht).

Die verfügbaren Stationen werden durch gelbe und rote Markierungen auf der Karte dargestellt.

Führen Sie die Maus auf sie, um den Namen der Station zu sehen.

Darauf klicken, um die Beobachtung von Wetterbeobachtungen und Prognosen zu sehen.

Um die Karte zu ändern : klicken Sie auf den grünen Tasten mit einem schwarzen Kreuz Zum Vergrößern, auf den grünen Button mit einem Gedankenstrich zu verkleinern, oder auf die grünen Pfeile für benachbarte Karten.


METAR-TAF: